createdAt,value
2022-07-30T00:02:02.512Z,100666.06
2022-07-30T00:04:29.788Z,100661.91
2022-07-30T00:06:57.152Z,100661.25
2022-07-30T00:09:27.055Z,100662.44
2022-07-30T00:11:56.697Z,100654.56
2022-07-30T00:14:26.004Z,100653.75
2022-07-30T00:16:56.816Z,100650.63
2022-07-30T00:19:49.576Z,100649.41
2022-07-30T00:22:17.768Z,100651.28
2022-07-30T00:24:44.968Z,100653.59
2022-07-30T00:27:14.531Z,100648.75
2022-07-30T00:29:44.981Z,100645.94
2022-07-30T00:32:12.512Z,100648.75
2022-07-30T00:34:40.778Z,100642.81
2022-07-30T00:37:08.012Z,100644.84
2022-07-30T00:39:37.830Z,100641.81
2022-07-30T00:42:05.151Z,100647.72
2022-07-30T00:44:32.638Z,100648.41
2022-07-30T00:47:00.059Z,100640.66
2022-07-30T00:49:27.982Z,100645.94
2022-07-30T00:51:55.432Z,100639.84
2022-07-30T00:54:22.801Z,100648.50
2022-07-30T00:56:50.232Z,100644.06
2022-07-30T00:59:17.479Z,100654.59
2022-07-30T01:01:44.851Z,100650.47
2022-07-30T01:04:12.318Z,100656.16
2022-07-30T01:06:40.297Z,100649.63
2022-07-30T01:09:07.874Z,100659.47
2022-07-30T01:11:38.933Z,100658.63
2022-07-30T01:14:08.355Z,100657.72
2022-07-30T01:16:36.081Z,100664.44
2022-07-30T01:22:31.425Z,100670.38
2022-07-30T01:24:58.746Z,100666.34
2022-07-30T01:27:25.966Z,100675.41
2022-07-30T01:29:53.762Z,100667.03
2022-07-30T01:32:21.944Z,100661.81
2022-07-30T01:34:49.546Z,100661.50
2022-07-30T01:37:17.605Z,100656.16
2022-07-30T01:39:48.914Z,100643.28
2022-07-30T01:42:16.160Z,100650.84
2022-07-30T01:44:43.564Z,100660.88
2022-07-30T01:47:11.781Z,100662.84
2022-07-30T01:49:39.078Z,100657.00
2022-07-30T01:52:06.405Z,100649.56
2022-07-30T01:54:33.668Z,100639.16
2022-07-30T01:57:33.787Z,100639.03
2022-07-30T02:00:02.673Z,100630.84
2022-07-30T02:02:45.874Z,100631.22
2022-07-30T02:05:14.675Z,100632.88
2022-07-30T02:07:51.584Z,100637.94
2022-07-30T02:10:26.124Z,100631.22
2022-07-30T02:12:54.804Z,100635.25
2022-07-30T02:15:23.825Z,100635.97
2022-07-30T02:17:54.119Z,100639.69
2022-07-30T02:20:25.064Z,100640.84
2022-07-30T02:22:58.472Z,100636.94
2022-07-30T02:25:25.700Z,100640.28
2022-07-30T02:27:55.059Z,100635.78
2022-07-30T02:30:29.784Z,100640.38
2022-07-30T02:33:00.512Z,100641.50
2022-07-30T02:35:28.358Z,100640.88
2022-07-30T02:37:55.615Z,100645.00
2022-07-30T02:40:22.814Z,100649.63
2022-07-30T02:42:50.631Z,100654.13
2022-07-30T02:45:21.237Z,100657.00
2022-07-30T02:47:56.416Z,100642.81
2022-07-30T02:50:24.589Z,100641.34
2022-07-30T02:52:52.023Z,100644.19
2022-07-30T02:55:19.316Z,100642.78
2022-07-30T02:57:46.826Z,100642.16
2022-07-30T03:00:14.182Z,100643.66
2022-07-30T03:02:44.083Z,100645.50
2022-07-30T03:05:11.439Z,100644.78
2022-07-30T03:07:56.754Z,100653.94
2022-07-30T03:10:24.652Z,100656.69
2022-07-30T03:12:51.906Z,100654.22
2022-07-30T03:15:19.235Z,100635.38
2022-07-30T03:17:47.165Z,100638.94
2022-07-30T03:20:16.144Z,100646.03
2022-07-30T03:22:44.215Z,100647.06
2022-07-30T03:25:12.923Z,100654.91
2022-07-30T03:27:40.319Z,100663.50
2022-07-30T03:30:07.983Z,100661.00
2022-07-30T03:32:36.037Z,100650.88
2022-07-30T03:35:06.310Z,100651.59
2022-07-30T03:37:35.063Z,100657.22
2022-07-30T03:40:02.338Z,100656.47
2022-07-30T03:42:30.240Z,100664.09
2022-07-30T03:44:58.192Z,100650.06
2022-07-30T03:47:25.371Z,100667.63
2022-07-30T03:49:53.307Z,100658.78
2022-07-30T03:52:20.566Z,100664.44
2022-07-30T03:54:48.033Z,100674.44
2022-07-30T03:57:41.141Z,100665.16
2022-07-30T04:00:13.917Z,100676.94
2022-07-30T04:02:44.605Z,100673.41
2022-07-30T04:05:27.363Z,100677.84
2022-07-30T04:08:09.279Z,100681.44
2022-07-30T04:10:38.321Z,100682.47
2022-07-30T04:13:23.879Z,100691.72
2022-07-30T04:16:37.261Z,100694.53
2022-07-30T04:18:51.563Z,100697.31
2022-07-30T04:21:19.123Z,100691.19
2022-07-30T04:24:01.922Z,100703.81
2022-07-30T04:26:32.918Z,100700.22
2022-07-30T04:29:00.634Z,100709.09
2022-07-30T04:31:28.577Z,100697.09
2022-07-30T04:34:05.010Z,100711.97
2022-07-30T04:36:38.966Z,100715.72
2022-07-30T04:39:07.547Z,100710.50
2022-07-30T04:41:49.637Z,100718.75
2022-07-30T04:44:29.298Z,100712.97
2022-07-30T04:47:20.451Z,100708.09
2022-07-30T04:50:02.816Z,100708.38
2022-07-30T04:52:30.101Z,100707.75
2022-07-30T04:54:58.614Z,100706.06
2022-07-30T04:57:25.916Z,100707.63
2022-07-30T04:59:53.264Z,100711.34
2022-07-30T05:02:21.186Z,100710.28
2022-07-30T05:04:48.544Z,100709.31
2022-07-30T05:07:15.820Z,100713.19
2022-07-30T05:09:43.129Z,100709.13
2022-07-30T05:12:11.180Z,100709.13
2022-07-30T05:14:38.358Z,100702.03
2022-07-30T05:17:09.427Z,100704.03
2022-07-30T05:20:11.052Z,100709.31
2022-07-30T05:22:55.078Z,100712.81
2022-07-30T05:25:25.657Z,100716.84
2022-07-30T05:27:58.289Z,100710.34
2022-07-30T05:30:27.612Z,100709.69
2022-07-30T05:32:57.960Z,100701.06
2022-07-30T05:35:28.965Z,100703.69
2022-07-30T05:37:56.393Z,100712.13
2022-07-30T05:40:25.210Z,100709.38
2022-07-30T05:42:55.173Z,100721.50
2022-07-30T05:45:22.441Z,100720.59
2022-07-30T05:47:49.893Z,100728.31
2022-07-30T05:50:17.857Z,100732.75
2022-07-30T05:52:45.824Z,100729.84
2022-07-30T05:55:36.361Z,100740.19
2022-07-30T05:58:17.563Z,100731.63
2022-07-30T06:00:45.401Z,100739.88
2022-07-30T06:03:12.947Z,100736.09
2022-07-30T06:06:35.132Z,100745.50
2022-07-30T06:09:02.347Z,100746.31
2022-07-30T06:11:29.720Z,100750.81
2022-07-30T06:13:57.073Z,100750.94
2022-07-30T06:16:24.493Z,100753.00
2022-07-30T06:18:51.757Z,100760.59
2022-07-30T06:21:29.711Z,100765.63
2022-07-30T06:24:17.464Z,100778.63
2022-07-30T06:26:51.080Z,100775.06
2022-07-30T06:29:20.095Z,100783.69
2022-07-30T06:31:47.999Z,100785.31
2022-07-30T06:34:16.012Z,100784.53
2022-07-30T06:36:43.474Z,100784.25
2022-07-30T06:39:56.840Z,100781.50
2022-07-30T06:42:29.282Z,100787.63
2022-07-30T06:45:16.840Z,100785.75
2022-07-30T06:48:02.632Z,100780.63
2022-07-30T06:50:32.222Z,100786.28
2022-07-30T06:52:59.768Z,100790.00
2022-07-30T06:55:36.965Z,100785.44
2022-07-30T06:58:04.311Z,100791.75
2022-07-30T07:00:57.648Z,100793.13
2022-07-30T07:03:39.884Z,100791.13
2022-07-30T07:06:08.161Z,100787.78
2022-07-30T07:08:36.135Z,100790.59
2022-07-30T07:11:03.682Z,100784.72
2022-07-30T07:13:34.105Z,100793.66
2022-07-30T07:16:05.387Z,100786.59
2022-07-30T07:18:33.095Z,100785.00
2022-07-30T07:21:05.310Z,100790.84
2022-07-30T07:23:42.046Z,100779.22
2022-07-30T07:26:32.514Z,100782.19
2022-07-30T07:29:03.502Z,100790.47
2022-07-30T07:32:06.920Z,100784.25
2022-07-30T07:34:20.500Z,100783.13
2022-07-30T07:36:47.731Z,100790.94
2022-07-30T07:39:15.727Z,100794.59
2022-07-30T07:41:48.834Z,100793.47
2022-07-30T07:44:22.059Z,100791.41
2022-07-30T07:46:49.454Z,100791.19
2022-07-30T07:49:22.889Z,100787.94
2022-07-30T07:51:52.083Z,100781.28
2022-07-30T07:54:22.600Z,100789.50
2022-07-30T07:56:51.779Z,100793.19
2022-07-30T07:59:30.345Z,100796.41
2022-07-30T08:02:04.119Z,100792.38
2022-07-30T08:04:49.920Z,100793.91
2022-07-30T08:07:20.169Z,100796.97
2022-07-30T08:10:19.566Z,100794.59
2022-07-30T08:12:49.667Z,100806.50
2022-07-30T08:15:52.071Z,100810.00
2022-07-30T08:18:37.677Z,100799.91
2022-07-30T08:21:31.241Z,100808.31
2022-07-30T08:23:58.436Z,100808.50
2022-07-30T08:26:25.917Z,100800.94
2022-07-30T08:28:54.466Z,100809.53
2022-07-30T08:31:22.442Z,100806.53
2022-07-30T08:33:49.722Z,100802.97
2022-07-30T08:36:19.664Z,100807.41
2022-07-30T08:38:48.927Z,100806.97
2022-07-30T08:41:17.771Z,100813.66
2022-07-30T08:43:47.301Z,100810.69
2022-07-30T08:46:14.710Z,100807.41
2022-07-30T08:48:50.854Z,100811.78
2022-07-30T08:51:19.810Z,100809.19
2022-07-30T08:53:46.945Z,100803.41
2022-07-30T08:56:14.280Z,100804.22
2022-07-30T08:58:41.731Z,100808.97
2022-07-30T09:01:09.292Z,100802.59
2022-07-30T09:03:37.982Z,100800.97
2022-07-30T09:06:11.876Z,100807.56
2022-07-30T09:08:39.207Z,100804.19
2022-07-30T09:11:06.444Z,100807.94
2022-07-30T09:13:35.456Z,100798.41
2022-07-30T09:16:11.211Z,100801.63
2022-07-30T09:18:39.545Z,100806.88
2022-07-30T09:21:21.482Z,100806.06
2022-07-30T09:24:03.972Z,100804.34
2022-07-30T09:26:55.070Z,100803.56
2022-07-30T09:30:00.748Z,100804.66
2022-07-30T09:32:53.533Z,100809.88
2022-07-30T09:35:44.089Z,100813.97
2022-07-30T09:38:11.955Z,100805.19
2022-07-30T09:40:58.307Z,100812.91
2022-07-30T09:43:43.647Z,100811.19
2022-07-30T09:46:19.293Z,100805.41
2022-07-30T09:48:49.675Z,100796.44
2022-07-30T09:51:56.663Z,100802.97
2022-07-30T09:54:26.384Z,100796.44
2022-07-30T09:57:03.752Z,100798.88
2022-07-30T09:59:34.744Z,100793.16
2022-07-30T10:02:05.330Z,100793.41
2022-07-30T10:04:57.341Z,100790.00
2022-07-30T10:07:26.308Z,100787.94
2022-07-30T10:09:58.850Z,100790.31
2022-07-30T10:12:26.632Z,100790.03
2022-07-30T10:14:54.542Z,100782.31
2022-07-30T10:17:26.620Z,100785.75
2022-07-30T10:20:20.981Z,100783.50
2022-07-30T10:23:09.028Z,100789.56
2022-07-30T10:25:49.346Z,100785.00
2022-07-30T10:28:42.861Z,100777.22
2022-07-30T10:31:48.775Z,100781.72
2022-07-30T10:33:57.925Z,100775.53
2022-07-30T10:36:25.412Z,100781.03
2022-07-30T10:38:53.067Z,100775.63
2022-07-30T10:41:42.610Z,100785.66
2022-07-30T10:44:21.037Z,100785.00
2022-07-30T10:46:56.610Z,100773.25
2022-07-30T10:49:25.943Z,100778.25
2022-07-30T10:51:57.466Z,100781.59
2022-07-30T10:54:33.979Z,100773.19
2022-07-30T10:57:06.781Z,100767.69
2022-07-30T10:59:50.232Z,100771.06
2022-07-30T11:02:18.487Z,100779.16
2022-07-30T11:04:47.338Z,100765.25
2022-07-30T11:07:30.055Z,100762.38
2022-07-30T11:10:05.959Z,100768.81
2022-07-30T11:12:43.996Z,100774.06
2022-07-30T11:15:18.252Z,100762.72
2022-07-30T11:18:02.503Z,100765.72
2022-07-30T11:20:30.254Z,100757.97
2022-07-30T11:23:16.366Z,100759.25
2022-07-30T11:25:50.951Z,100755.16
2022-07-30T11:28:39.316Z,100757.91
2022-07-30T11:31:30.639Z,100756.19
2022-07-30T11:34:16.530Z,100754.31
2022-07-30T11:37:22.405Z,100750.16
2022-07-30T11:39:59.562Z,100739.63
2022-07-30T11:42:27.608Z,100749.94
2022-07-30T11:45:13.711Z,100733.91
2022-07-30T11:47:44.253Z,100729.44
2022-07-30T11:50:40.817Z,100730.97
2022-07-30T11:53:08.987Z,100724.00
2022-07-30T11:55:40.269Z,100717.75
2022-07-30T11:58:08.626Z,100731.63
2022-07-30T12:00:38.478Z,100725.13
2022-07-30T12:03:12.943Z,100714.47
2022-07-30T12:05:40.274Z,100716.56
2022-07-30T12:08:07.652Z,100723.81
2022-07-30T12:10:39.602Z,100718.03
2022-07-30T12:13:10.699Z,100713.06
2022-07-30T12:15:42.270Z,100710.47
2022-07-30T12:18:25.748Z,100713.63
2022-07-30T12:20:54.899Z,100709.06
2022-07-30T12:23:25.114Z,100715.78
2022-07-30T12:25:53.090Z,100710.59
2022-07-30T12:28:23.154Z,100713.25
2022-07-30T12:30:51.218Z,100712.59
2022-07-30T12:33:19.044Z,100714.38
2022-07-30T12:35:49.048Z,100708.78
2022-07-30T12:38:16.884Z,100705.78
2022-07-30T12:41:10.433Z,100709.63
2022-07-30T12:43:47.847Z,100696.13
2022-07-30T12:46:16.565Z,100691.22
2022-07-30T12:48:50.854Z,100694.50
2022-07-30T12:51:18.122Z,100686.47
2022-07-30T12:53:46.305Z,100694.16
2022-07-30T12:56:13.788Z,100688.03
2022-07-30T12:58:41.210Z,100696.44
2022-07-30T13:01:08.795Z,100690.03
2022-07-30T13:03:41.897Z,100695.38
2022-07-30T13:06:23.679Z,100684.63
2022-07-30T13:08:55.258Z,100680.75
2022-07-30T13:11:23.376Z,100679.53
2022-07-30T13:13:56.047Z,100671.53
2022-07-30T13:16:28.684Z,100671.22
2022-07-30T13:18:59.054Z,100668.88
2022-07-30T13:21:33.516Z,100667.69
2022-07-30T13:24:01.243Z,100668.09
2022-07-30T13:26:31.409Z,100679.63
2022-07-30T13:29:01.881Z,100674.72
2022-07-30T13:31:42.509Z,100675.50
2022-07-30T13:34:11.290Z,100670.06
2022-07-30T13:36:38.848Z,100673.78
2022-07-30T13:39:06.197Z,100672.91
2022-07-30T13:41:36.150Z,100669.16
2022-07-30T13:44:04.324Z,100669.31
2022-07-30T13:46:33.827Z,100659.88
2022-07-30T13:49:01.223Z,100654.97
2022-07-30T13:51:30.862Z,100660.84
2022-07-30T13:54:00.787Z,100662.00
2022-07-30T13:56:28.113Z,100651.72
2022-07-30T13:58:57.972Z,100650.16
2022-07-30T14:01:27.718Z,100649.59
2022-07-30T14:03:57.642Z,100644.66
2022-07-30T14:06:26.978Z,100645.97
2022-07-30T14:08:55.448Z,100640.75
2022-07-30T14:11:25.161Z,100641.78
2022-07-30T14:13:52.367Z,100642.59
2022-07-30T14:16:43.612Z,100646.53
2022-07-30T14:19:09.557Z,100653.81
2022-07-30T14:21:50.756Z,100641.31
2022-07-30T14:24:19.051Z,100646.91
2022-07-30T14:27:24.959Z,100642.03
2022-07-30T14:29:52.319Z,100636.47
2022-07-30T14:32:19.697Z,100633.72
2022-07-30T14:34:50.851Z,100642.84
2022-07-30T14:37:23.063Z,100638.50
2022-07-30T14:40:09.045Z,100641.75
2022-07-30T14:42:36.673Z,100648.13
2022-07-30T14:45:04.961Z,100640.56
2022-07-30T14:47:32.315Z,100644.53
2022-07-30T14:49:59.509Z,100647.28
2022-07-30T14:52:38.808Z,100646.13
2022-07-30T14:55:06.912Z,100645.31
2022-07-30T14:57:36.704Z,100647.69
2022-07-30T15:00:11.589Z,100646.50
2022-07-30T15:02:41.530Z,100638.13
2022-07-30T15:05:09.443Z,100644.53
2022-07-30T15:07:37.319Z,100654.50
2022-07-30T15:10:05.162Z,100642.13
2022-07-30T15:12:32.627Z,100646.09
2022-07-30T15:15:02.539Z,100645.31
2022-07-30T15:17:30.103Z,100638.94
2022-07-30T15:20:00.390Z,100633.38
2022-07-30T15:22:30.230Z,100644.13
2022-07-30T15:24:59.997Z,100643.31
2022-07-30T15:27:34.049Z,100646.09
2022-07-30T15:30:04.220Z,100652.81
2022-07-30T15:32:37.220Z,100646.06
2022-07-30T15:35:09.461Z,100644.13
2022-07-30T15:37:41.197Z,100646.84
2022-07-30T15:40:08.728Z,100650.00
2022-07-30T15:42:36.078Z,100646.81
2022-07-30T15:45:17.089Z,100648.00
2022-07-30T15:47:44.989Z,100650.38
2022-07-30T15:50:12.272Z,100643.22
2022-07-30T15:52:44.288Z,100652.41
2022-07-30T15:55:11.689Z,100647.22
2022-07-30T15:57:39.157Z,100640.41
2022-07-30T16:00:09.880Z,100646.81
2022-07-30T16:02:41.873Z,100648.75
2022-07-30T16:05:14.238Z,100643.53
2022-07-30T16:07:42.010Z,100650.72
2022-07-30T16:10:09.649Z,100641.13
2022-07-30T16:12:39.942Z,100645.09
2022-07-30T16:15:09.128Z,100649.88
2022-07-30T16:17:37.218Z,100643.53
2022-07-30T16:20:11.550Z,100645.06
2022-07-30T16:22:42.047Z,100637.16
2022-07-30T16:25:09.455Z,100643.53
2022-07-30T16:27:36.767Z,100639.59
2022-07-30T16:30:04.311Z,100645.97
2022-07-30T16:32:31.602Z,100634.81
2022-07-30T16:34:58.887Z,100635.25
2022-07-30T16:37:46.536Z,100635.25
2022-07-30T16:40:13.812Z,100639.22
2022-07-30T16:42:43.418Z,100653.59
2022-07-30T16:45:10.852Z,100654.72
2022-07-30T16:47:38.260Z,100654.63
2022-07-30T16:50:06.107Z,100652.25
2022-07-30T16:53:03.622Z,100662.69
2022-07-30T16:55:33.379Z,100652.25
2022-07-30T16:58:02.941Z,100652.97
2022-07-30T17:00:30.366Z,100657.75
2022-07-30T17:02:57.682Z,100651.31
2022-07-30T17:05:25.126Z,100656.47
2022-07-30T17:07:54.787Z,100656.13
2022-07-30T17:10:25.623Z,100659.25
2022-07-30T17:12:56.912Z,100659.25
2022-07-30T17:15:32.033Z,100661.63
2022-07-30T17:18:00.876Z,100668.03
2022-07-30T17:23:12.225Z,100671.25
2022-07-30T17:25:39.616Z,100670.84
2022-07-30T17:28:06.936Z,100674.78
2022-07-30T17:30:36.858Z,100671.91
2022-07-30T17:33:06.455Z,100678.38
2022-07-30T17:35:39.120Z,100677.13
2022-07-30T17:38:07.450Z,100676.19
2022-07-30T17:40:34.794Z,100680.56
2022-07-30T17:43:05.643Z,100682.47
2022-07-30T17:45:36.226Z,100683.69
2022-07-30T17:48:04.576Z,100684.09
2022-07-30T17:50:34.265Z,100690.13
2022-07-30T17:53:04.194Z,100691.72
2022-07-30T17:55:36.989Z,100698.06
2022-07-30T17:58:04.655Z,100701.25
2022-07-30T18:00:34.700Z,100700.38
2022-07-30T18:03:06.424Z,100698.78
2022-07-30T18:05:36.192Z,100704.00
2022-07-30T18:08:06.052Z,100704.44
2022-07-30T18:11:13.839Z,100700.41
2022-07-30T18:13:41.609Z,100705.19
2022-07-30T18:16:08.971Z,100711.88
2022-07-30T18:18:38.634Z,100705.09
2022-07-30T18:21:17.475Z,100712.28
2022-07-30T18:23:49.674Z,100708.69
2022-07-30T18:26:17.041Z,100712.66
2022-07-30T18:28:44.317Z,100713.72
2022-07-30T18:31:11.761Z,100708.16
2022-07-30T18:33:41.447Z,100710.50
2022-07-30T18:36:11.108Z,100714.41
2022-07-30T18:39:00.931Z,100716.69
2022-07-30T18:41:28.237Z,100720.66
2022-07-30T18:43:55.701Z,100728.84
2022-07-30T18:46:25.376Z,100735.53
2022-07-30T18:48:57.344Z,100726.00
2022-07-30T18:51:25.300Z,100735.19
2022-07-30T18:53:55.940Z,100736.28
2022-07-30T18:56:25.791Z,100741.50
2022-07-30T18:58:53.000Z,100747.84
2022-07-30T19:01:22.862Z,100749.72
2022-07-30T19:03:50.305Z,100750.09
2022-07-30T19:06:21.609Z,100759.66
2022-07-30T19:08:49.059Z,100766.44
2022-07-30T19:11:18.729Z,100765.25
2022-07-30T19:13:45.983Z,100774.28
2022-07-30T19:16:13.233Z,100770.56
2022-07-30T19:18:43.660Z,100778.88
2022-07-30T19:21:14.047Z,100776.59
2022-07-30T19:23:41.716Z,100788.97
2022-07-30T19:26:09.117Z,100789.41
2022-07-30T19:28:38.481Z,100791.84
2022-07-30T19:31:05.790Z,100794.81
2022-07-30T19:33:33.128Z,100798.25
2022-07-30T19:36:02.923Z,100795.56
2022-07-30T19:38:30.292Z,100801.13
2022-07-30T19:40:57.836Z,100812.28
2022-07-30T19:43:28.591Z,100810.66
2022-07-30T19:45:58.701Z,100817.69
2022-07-30T19:48:32.473Z,100815.94
2022-07-30T19:51:00.548Z,100821.88
2022-07-30T19:53:31.643Z,100808.00
2022-07-30T19:56:23.793Z,100810.44
2022-07-30T19:58:56.582Z,100816.88
2022-07-30T20:01:24.030Z,100827.84
2022-07-30T20:04:14.547Z,100826.34
2022-07-30T20:06:46.168Z,100833.31
2022-07-30T20:09:15.078Z,100833.09
2022-07-30T20:11:46.270Z,100837.59
2022-07-30T20:14:16.207Z,100837.59
2022-07-30T20:16:43.881Z,100838.78
2022-07-30T20:19:15.771Z,100837.28
2022-07-30T20:21:57.750Z,100843.16
2022-07-30T20:24:25.622Z,100842.03
2022-07-30T20:26:53.082Z,100840.16
2022-07-30T20:29:23.209Z,100851.97
2022-07-30T20:31:51.844Z,100856.38
2022-07-30T20:34:20.804Z,100861.78
2022-07-30T20:36:51.186Z,100862.69
2022-07-30T20:39:18.660Z,100876.19
2022-07-30T20:41:47.417Z,100875.50
2022-07-30T20:44:23.197Z,100876.72
2022-07-30T20:46:54.045Z,100877.31
2022-07-30T20:49:35.258Z,100884.22
2022-07-30T20:52:06.199Z,100888.34
2022-07-30T20:54:33.836Z,100893.94
2022-07-30T20:57:01.218Z,100895.69
2022-07-30T20:59:29.978Z,100895.47
2022-07-30T21:01:58.449Z,100899.00
2022-07-30T21:04:25.941Z,100900.97
2022-07-30T21:06:54.318Z,100909.00
2022-07-30T21:09:21.695Z,100907.00
2022-07-30T21:12:09.647Z,100908.13
2022-07-30T21:14:39.715Z,100918.25
2022-07-30T21:17:08.001Z,100918.53
2022-07-30T21:19:38.153Z,100930.28
2022-07-30T21:22:05.770Z,100924.59
2022-07-30T21:24:34.563Z,100922.81
2022-07-30T21:27:02.316Z,100926.41
2022-07-30T21:29:31.548Z,100925.00
2022-07-30T21:32:02.731Z,100928.00
2022-07-30T21:34:41.938Z,100927.66
2022-07-30T21:37:10.006Z,100933.00
2022-07-30T21:39:39.759Z,100931.25
2022-07-30T21:42:10.302Z,100928.63
2022-07-30T21:44:38.220Z,100931.75
2022-07-30T21:47:10.411Z,100930.34
2022-07-30T21:49:38.736Z,100955.66
2022-07-30T21:52:10.031Z,100950.25
2022-07-30T21:54:48.247Z,100950.09
2022-07-30T21:57:26.245Z,100958.03
2022-07-30T21:59:56.476Z,100960.53
2022-07-30T22:02:24.487Z,100962.25
2022-07-30T22:04:54.839Z,100958.88
2022-07-30T22:07:22.510Z,100965.09
2022-07-30T22:10:10.746Z,100968.78
2022-07-30T22:12:38.802Z,100961.97
2022-07-30T22:15:08.814Z,100966.00
2022-07-30T22:17:58.627Z,100967.88
2022-07-30T22:20:28.292Z,100971.97
2022-07-30T22:22:58.651Z,100976.44
2022-07-30T22:25:39.895Z,100977.28
2022-07-30T22:28:16.732Z,100982.66
2022-07-30T22:30:44.191Z,100973.25
2022-07-30T22:33:16.307Z,100978.44
2022-07-30T22:35:46.748Z,100967.25
2022-07-30T22:38:17.156Z,100973.41
2022-07-30T22:40:46.796Z,100978.53
2022-07-30T22:43:16.542Z,100976.34
2022-07-30T22:45:48.814Z,100971.09
2022-07-30T22:48:17.309Z,100974.59
2022-07-30T22:50:44.746Z,100967.88
2022-07-30T22:54:10.639Z,100976.63
2022-07-30T22:56:06.554Z,100973.59
2022-07-30T22:58:48.995Z,100983.16
2022-07-30T23:01:16.776Z,100988.41
2022-07-30T23:03:48.073Z,100981.63
2022-07-30T23:06:16.350Z,100987.25
2022-07-30T23:08:46.156Z,100983.19
2022-07-30T23:11:13.378Z,100992.72
2022-07-30T23:13:43.345Z,100995.78
2022-07-30T23:16:10.633Z,100982.84
2022-07-30T23:18:38.040Z,100981.84
2022-07-30T23:21:37.355Z,100988.00
2022-07-30T23:24:07.421Z,100989.72
2022-07-30T23:26:38.001Z,100987.66
2022-07-30T23:29:05.289Z,100973.78
2022-07-30T23:31:35.677Z,100967.34
2022-07-30T23:34:05.719Z,100974.22
2022-07-30T23:36:33.204Z,100972.63
2022-07-30T23:39:00.453Z,100970.38
2022-07-30T23:41:29.752Z,100968.31
2022-07-30T23:43:58.004Z,100969.69
2022-07-30T23:46:29.761Z,100966.34
2022-07-30T23:48:58.201Z,100969.00
2022-07-30T23:51:25.491Z,100963.84
2022-07-30T23:54:01.142Z,100968.41
2022-07-30T23:56:30.792Z,100970.97
2022-07-30T23:58:58.452Z,100971.09
